sensor_id;sensor_type;location;lat;lon;timestamp;temperature;humidity
71206;SHT31;58935;54.498;18.544;2023-06-22T00:02:22;20.12;74.87
71206;SHT31;58935;54.498;18.544;2023-06-22T00:04:47;20.08;75.01
71206;SHT31;58935;54.498;18.544;2023-06-22T00:07:15;20.05;75.10
71206;SHT31;58935;54.498;18.544;2023-06-22T00:09:40;20.02;75.20
71206;SHT31;58935;54.498;18.544;2023-06-22T00:12:06;19.99;75.31
71206;SHT31;58935;54.498;18.544;2023-06-22T00:14:32;19.96;75.50
71206;SHT31;58935;54.498;18.544;2023-06-22T00:16:57;19.92;75.50
71206;SHT31;58935;54.498;18.544;2023-06-22T00:19:24;19.90;75.57
71206;SHT31;58935;54.498;18.544;2023-06-22T00:21:50;19.87;75.68
71206;SHT31;58935;54.498;18.544;2023-06-22T00:24:19;19.83;75.76
71206;SHT31;58935;54.498;18.544;2023-06-22T00:26:45;19.81;75.89
71206;SHT31;58935;54.498;18.544;2023-06-22T00:29:12;19.78;75.95
71206;SHT31;58935;54.498;18.544;2023-06-22T00:31:38;19.76;75.97
71206;SHT31;58935;54.498;18.544;2023-06-22T00:34:03;19.74;76.04
71206;SHT31;58935;54.498;18.544;2023-06-22T00:36:28;19.70;76.19
71206;SHT31;58935;54.498;18.544;2023-06-22T00:38:54;19.67;76.29
71206;SHT31;58935;54.498;18.544;2023-06-22T00:41:21;19.64;76.51
71206;SHT31;58935;54.498;18.544;2023-06-22T00:43:47;19.60;76.54
71206;SHT31;58935;54.498;18.544;2023-06-22T00:46:12;19.58;76.61
71206;SHT31;58935;54.498;18.544;2023-06-22T00:48:38;19.54;76.72
71206;SHT31;58935;54.498;18.544;2023-06-22T00:51:05;19.52;76.95
71206;SHT31;58935;54.498;18.544;2023-06-22T00:53:30;19.50;77.04
71206;SHT31;58935;54.498;18.544;2023-06-22T00:56:00;19.47;77.04
71206;SHT31;58935;54.498;18.544;2023-06-22T00:58:28;19.44;77.10
71206;SHT31;58935;54.498;18.544;2023-06-22T01:00:53;19.42;77.27
71206;SHT31;58935;54.498;18.544;2023-06-22T01:03:19;19.40;77.47
71206;SHT31;58935;54.498;18.544;2023-06-22T01:05:45;19.39;77.63
71206;SHT31;58935;54.498;18.544;2023-06-22T01:10:55;19.34;77.70
71206;SHT31;58935;54.498;18.544;2023-06-22T01:16:08;19.28;78.01
71206;SHT31;58935;54.498;18.544;2023-06-22T01:18:45;19.25;78.10
71206;SHT31;58935;54.498;18.544;2023-06-22T01:21:17;19.23;78.16
71206;SHT31;58935;54.498;18.544;2023-06-22T01:23:50;19.21;78.30
71206;SHT31;58935;54.498;18.544;2023-06-22T01:26:58;19.18;78.46
71206;SHT31;58935;54.498;18.544;2023-06-22T01:29:37;19.15;78.56
71206;SHT31;58935;54.498;18.544;2023-06-22T01:32:05;19.14;78.52
71206;SHT31;58935;54.498;18.544;2023-06-22T01:34:34;19.11;78.59
71206;SHT31;58935;54.498;18.544;2023-06-22T01:37:02;19.09;78.72
71206;SHT31;58935;54.498;18.544;2023-06-22T01:39:28;19.06;78.90
71206;SHT31;58935;54.498;18.544;2023-06-22T01:41:55;19.03;78.99
71206;SHT31;58935;54.498;18.544;2023-06-22T01:44:22;19.01;79.03
71206;SHT31;58935;54.498;18.544;2023-06-22T01:46:50;18.98;79.19
71206;SHT31;58935;54.498;18.544;2023-06-22T01:49:17;18.94;79.37
71206;SHT31;58935;54.498;18.544;2023-06-22T01:51:43;18.91;79.41
71206;SHT31;58935;54.498;18.544;2023-06-22T01:54:08;18.90;79.53
71206;SHT31;58935;54.498;18.544;2023-06-22T01:56:34;18.86;79.72
71206;SHT31;58935;54.498;18.544;2023-06-22T02:01:42;18.83;79.90
71206;SHT31;58935;54.498;18.544;2023-06-22T02:04:21;18.81;80.11
71206;SHT31;58935;54.498;18.544;2023-06-22T02:06:55;18.80;80.14
71206;SHT31;58935;54.498;18.544;2023-06-22T02:09:26;18.77;80.08
71206;SHT31;58935;54.498;18.544;2023-06-22T02:11:55;18.76;80.19
71206;SHT31;58935;54.498;18.544;2023-06-22T02:14:23;18.74;80.24
71206;SHT31;58935;54.498;18.544;2023-06-22T02:16:50;18.72;80.45
71206;SHT31;58935;54.498;18.544;2023-06-22T02:19:17;18.70;80.37
71206;SHT31;58935;54.498;18.544;2023-06-22T02:21:48;18.69;80.53
71206;SHT31;58935;54.498;18.544;2023-06-22T02:24:14;18.67;80.71
71206;SHT31;58935;54.498;18.544;2023-06-22T02:26:39;18.65;80.67
71206;SHT31;58935;54.498;18.544;2023-06-22T02:29:07;18.64;80.78
71206;SHT31;58935;54.498;18.544;2023-06-22T02:31:33;18.63;80.91
71206;SHT31;58935;54.498;18.544;2023-06-22T02:33:58;18.62;81.00
71206;SHT31;58935;54.498;18.544;2023-06-22T02:36:25;18.60;81.29
71206;SHT31;58935;54.498;18.544;2023-06-22T02:38:52;18.60;81.33
71206;SHT31;58935;54.498;18.544;2023-06-22T02:41:21;18.60;81.31
71206;SHT31;58935;54.498;18.544;2023-06-22T02:46:48;18.60;81.43
71206;SHT31;58935;54.498;18.544;2023-06-22T02:49:14;18.60;81.49
71206;SHT31;58935;54.498;18.544;2023-06-22T02:51:41;18.61;81.66
71206;SHT31;58935;54.498;18.544;2023-06-22T02:54:11;18.61;81.72
71206;SHT31;58935;54.498;18.544;2023-06-22T02:56:36;18.63;81.69
71206;SHT31;58935;54.498;18.544;2023-06-22T02:59:02;18.65;81.65
71206;SHT31;58935;54.498;18.544;2023-06-22T03:01:28;18.67;81.59
71206;SHT31;58935;54.498;18.544;2023-06-22T03:03:56;18.69;81.61
71206;SHT31;58935;54.498;18.544;2023-06-22T03:06:22;18.73;81.50
71206;SHT31;58935;54.498;18.544;2023-06-22T03:08:49;18.77;81.44
71206;SHT31;58935;54.498;18.544;2023-06-22T03:11:15;18.86;81.29
71206;SHT31;58935;54.498;18.544;2023-06-22T03:13:41;18.98;81.07
71206;SHT31;58935;54.498;18.544;2023-06-22T03:16:06;19.17;80.80
71206;SHT31;58935;54.498;18.544;2023-06-22T04:20:52;19.91;76.56
71206;SHT31;58935;54.498;18.544;2023-06-22T04:23:18;19.92;76.52
71206;SHT31;58935;54.498;18.544;2023-06-22T04:25:43;19.95;76.43
71206;SHT31;58935;54.498;18.544;2023-06-22T04:28:08;19.97;76.39
71206;SHT31;58935;54.498;18.544;2023-06-22T04:30:37;19.99;76.29
71206;SHT31;58935;54.498;18.544;2023-06-22T04:33:11;20.02;76.01
71206;SHT31;58935;54.498;18.544;2023-06-22T04:35:39;20.03;75.81
71206;SHT31;58935;54.498;18.544;2023-06-22T04:38:06;20.04;75.66
71206;SHT31;58935;54.498;18.544;2023-06-22T04:40:32;20.01;75.55
71206;SHT31;58935;54.498;18.544;2023-06-22T04:42:58;19.96;75.69
71206;SHT31;58935;54.498;18.544;2023-06-22T04:45:27;19.94;75.80
71206;SHT31;58935;54.498;18.544;2023-06-22T04:47:54;19.92;75.58
71206;SHT31;58935;54.498;18.544;2023-06-22T04:50:20;19.92;75.56
71206;SHT31;58935;54.498;18.544;2023-06-22T04:52:47;19.95;75.60
71206;SHT31;58935;54.498;18.544;2023-06-22T04:55:13;20.00;75.59
71206;SHT31;58935;54.498;18.544;2023-06-22T04:57:43;20.07;75.41
71206;SHT31;58935;54.498;18.544;2023-06-22T05:00:13;20.13;75.08
71206;SHT31;58935;54.498;18.544;2023-06-22T05:02:45;20.16;74.65
71206;SHT31;58935;54.498;18.544;2023-06-22T05:05:12;20.14;74.29
71206;SHT31;58935;54.498;18.544;2023-06-22T05:07:39;20.14;74.06
71206;SHT31;58935;54.498;18.544;2023-06-22T05:10:13;20.16;74.09
71206;SHT31;58935;54.498;18.544;2023-06-22T05:12:39;20.26;73.89
71206;SHT31;58935;54.498;18.544;2023-06-22T05:15:06;20.36;73.47
71206;SHT31;58935;54.498;18.544;2023-06-22T05:17:33;20.39;72.52
71206;SHT31;58935;54.498;18.544;2023-06-22T05:19:59;20.43;72.30
71206;SHT31;58935;54.498;18.544;2023-06-22T05:22:25;20.48;72.10
71206;SHT31;58935;54.498;18.544;2023-06-22T05:24:51;20.51;71.36
71206;SHT31;58935;54.498;18.544;2023-06-22T05:27:16;20.46;70.78
71206;SHT31;58935;54.498;18.544;2023-06-22T05:29:42;20.45;70.81
71206;SHT31;58935;54.498;18.544;2023-06-22T05:32:08;20.44;70.35
71206;SHT31;58935;54.498;18.544;2023-06-22T05:38:15;20.40;70.30
71206;SHT31;58935;54.498;18.544;2023-06-22T05:40:41;20.43;70.18
71206;SHT31;58935;54.498;18.544;2023-06-22T05:43:06;20.48;70.20
71206;SHT31;58935;54.498;18.544;2023-06-22T05:45:31;20.52;69.97
71206;SHT31;58935;54.498;18.544;2023-06-22T05:47:57;20.57;69.03
71206;SHT31;58935;54.498;18.544;2023-06-22T05:50:22;20.56;68.45
71206;SHT31;58935;54.498;18.544;2023-06-22T05:52:49;20.55;68.63
71206;SHT31;58935;54.498;18.544;2023-06-22T05:55:15;20.58;68.48
71206;SHT31;58935;54.498;18.544;2023-06-22T05:57:40;20.60;67.76
71206;SHT31;58935;54.498;18.544;2023-06-22T06:00:06;20.56;66.90
71206;SHT31;58935;54.498;18.544;2023-06-22T06:02:36;20.50;66.56
71206;SHT31;58935;54.498;18.544;2023-06-22T06:05:09;20.50;66.23
71206;SHT31;58935;54.498;18.544;2023-06-22T06:07:38;20.52;66.01
71206;SHT31;58935;54.498;18.544;2023-06-22T06:10:04;20.52;64.98
71206;SHT31;58935;54.498;18.544;2023-06-22T06:12:31;20.53;65.25
71206;SHT31;58935;54.498;18.544;2023-06-22T06:14:57;20.57;64.89
71206;SHT31;58935;54.498;18.544;2023-06-22T06:17:22;20.55;64.49
71206;SHT31;58935;54.498;18.544;2023-06-22T06:19:47;20.53;64.37
71206;SHT31;58935;54.498;18.544;2023-06-22T06:22:12;20.54;64.36
71206;SHT31;58935;54.498;18.544;2023-06-22T06:24:40;20.55;64.66
71206;SHT31;58935;54.498;18.544;2023-06-22T06:27:05;20.63;64.41
71206;SHT31;58935;54.498;18.544;2023-06-22T06:29:31;20.71;64.17
71206;SHT31;58935;54.498;18.544;2023-06-22T06:35:39;20.86;63.38
71206;SHT31;58935;54.498;18.544;2023-06-22T06:38:04;20.90;62.71
71206;SHT31;58935;54.498;18.544;2023-06-22T06:40:30;20.95;62.79
71206;SHT31;58935;54.498;18.544;2023-06-22T06:42:55;21.01;62.76
71206;SHT31;58935;54.498;18.544;2023-06-22T06:45:21;21.08;62.27
71206;SHT31;58935;54.498;18.544;2023-06-22T06:47:52;21.14;62.07
71206;SHT31;58935;54.498;18.544;2023-06-22T06:50:17;21.21;61.45
71206;SHT31;58935;54.498;18.544;2023-06-22T06:52:44;21.27;61.37
71206;SHT31;58935;54.498;18.544;2023-06-22T06:55:10;21.31;60.86
71206;SHT31;58935;54.498;18.544;2023-06-22T06:57:37;21.29;60.20
71206;SHT31;58935;54.498;18.544;2023-06-22T07:00:07;21.33;60.70
71206;SHT31;58935;54.498;18.544;2023-06-22T07:02:38;21.37;60.62
71206;SHT31;58935;54.498;18.544;2023-06-22T07:05:06;21.39;60.36
71206;SHT31;58935;54.498;18.544;2023-06-22T07:07:33;21.39;59.76
71206;SHT31;58935;54.498;18.544;2023-06-22T07:09:58;21.42;59.67
71206;SHT31;58935;54.498;18.544;2023-06-22T07:12:27;21.44;59.60
71206;SHT31;58935;54.498;18.544;2023-06-22T07:14:53;21.45;59.91
71206;SHT31;58935;54.498;18.544;2023-06-22T07:17:18;21.46;59.72
71206;SHT31;58935;54.498;18.544;2023-06-22T07:19:44;21.49;59.79
71206;SHT31;58935;54.498;18.544;2023-06-22T07:22:10;21.52;59.88
71206;SHT31;58935;54.498;18.544;2023-06-22T07:24:37;21.54;59.82
71206;SHT31;58935;54.498;18.544;2023-06-22T07:27:03;21.55;59.47
71206;SHT31;58935;54.498;18.544;2023-06-22T07:29:30;21.57;59.41
71206;SHT31;58935;54.498;18.544;2023-06-22T07:31:56;21.63;59.63
71206;SHT31;58935;54.498;18.544;2023-06-22T07:34:25;21.68;58.90
71206;SHT31;58935;54.498;18.544;2023-06-22T07:36:51;21.75;58.75
71206;SHT31;58935;54.498;18.544;2023-06-22T07:39:16;21.81;59.27
71206;SHT31;58935;54.498;18.544;2023-06-22T07:41:44;21.91;59.35
71206;SHT31;58935;54.498;18.544;2023-06-22T07:44:09;22.01;59.20
71206;SHT31;58935;54.498;18.544;2023-06-22T07:46:34;22.10;58.91
71206;SHT31;58935;54.498;18.544;2023-06-22T07:49:00;22.17;58.79
71206;SHT31;58935;54.498;18.544;2023-06-22T07:51:26;22.25;58.86
71206;SHT31;58935;54.498;18.544;2023-06-22T07:53:52;22.32;58.17
71206;SHT31;58935;54.498;18.544;2023-06-22T07:56:20;22.35;56.69
71206;SHT31;58935;54.498;18.544;2023-06-22T07:58:46;22.37;56.79
71206;SHT31;58935;54.498;18.544;2023-06-22T08:01:13;22.40;55.62
71206;SHT31;58935;54.498;18.544;2023-06-22T08:03:39;22.36;54.86
71206;SHT31;58935;54.498;18.544;2023-06-22T08:06:05;22.31;55.41
71206;SHT31;58935;54.498;18.544;2023-06-22T08:08:33;22.34;55.80
71206;SHT31;58935;54.498;18.544;2023-06-22T08:10:58;22.38;55.96
71206;SHT31;58935;54.498;18.544;2023-06-22T08:13:24;22.43;56.31
71206;SHT31;58935;54.498;18.544;2023-06-22T08:15:49;22.52;56.55
71206;SHT31;58935;54.498;18.544;2023-06-22T08:18:15;22.63;56.44
71206;SHT31;58935;54.498;18.544;2023-06-22T08:20:41;22.69;56.02
71206;SHT31;58935;54.498;18.544;2023-06-22T08:23:07;22.77;55.42
71206;SHT31;58935;54.498;18.544;2023-06-22T08:25:33;22.82;54.80
71206;SHT31;58935;54.498;18.544;2023-06-22T08:27:59;22.83;54.89
71206;SHT31;58935;54.498;18.544;2023-06-22T08:30:26;22.86;54.99
71206;SHT31;58935;54.498;18.544;2023-06-22T08:32:52;22.87;54.81
71206;SHT31;58935;54.498;18.544;2023-06-22T08:35:17;22.92;54.16
71206;SHT31;58935;54.498;18.544;2023-06-22T08:37:42;22.99;54.22
71206;SHT31;58935;54.498;18.544;2023-06-22T08:40:08;23.03;54.22
71206;SHT31;58935;54.498;18.544;2023-06-22T08:42:35;23.09;53.32
71206;SHT31;58935;54.498;18.544;2023-06-22T08:45:01;23.14;53.26
71206;SHT31;58935;54.498;18.544;2023-06-22T08:47:28;23.23;52.54
71206;SHT31;58935;54.498;18.544;2023-06-22T08:49:53;23.25;52.27
71206;SHT31;58935;54.498;18.544;2023-06-22T08:52:19;23.28;52.31
71206;SHT31;58935;54.498;18.544;2023-06-22T08:54:46;23.27;51.67
71206;SHT31;58935;54.498;18.544;2023-06-22T08:57:12;23.22;51.60
71206;SHT31;58935;54.498;18.544;2023-06-22T08:59:38;23.23;52.37
71206;SHT31;58935;54.498;18.544;2023-06-22T09:02:03;23.28;52.40
71206;SHT31;58935;54.498;18.544;2023-06-22T09:04:29;23.32;51.27
71206;SHT31;58935;54.498;18.544;2023-06-22T09:07:00;23.34;51.53
71206;SHT31;58935;54.498;18.544;2023-06-22T09:09:26;23.44;51.85
71206;SHT31;58935;54.498;18.544;2023-06-22T09:11:52;23.54;51.61
71206;SHT31;58935;54.498;18.544;2023-06-22T09:14:19;23.61;50.62
71206;SHT31;58935;54.498;18.544;2023-06-22T09:16:45;23.55;50.40
71206;SHT31;58935;54.498;18.544;2023-06-22T09:19:11;23.48;51.53
71206;SHT31;58935;54.498;18.544;2023-06-22T09:21:37;23.50;52.35
71206;SHT31;58935;54.498;18.544;2023-06-22T09:24:02;23.54;51.93
71206;SHT31;58935;54.498;18.544;2023-06-22T09:26:28;23.57;51.46
71206;SHT31;58935;54.498;18.544;2023-06-22T09:28:53;23.57;51.86
71206;SHT31;58935;54.498;18.544;2023-06-22T09:31:19;23.60;51.87
71206;SHT31;58935;54.498;18.544;2023-06-22T09:33:51;23.64;51.85
71206;SHT31;58935;54.498;18.544;2023-06-22T09:36:19;23.68;51.24
71206;SHT31;58935;54.498;18.544;2023-06-22T09:38:46;23.72;50.99
71206;SHT31;58935;54.498;18.544;2023-06-22T09:41:13;23.70;50.46
71206;SHT31;58935;54.498;18.544;2023-06-22T09:43:39;23.65;50.83
71206;SHT31;58935;54.498;18.544;2023-06-22T09:46:04;23.63;51.25
71206;SHT31;58935;54.498;18.544;2023-06-22T09:48:30;23.66;51.58
71206;SHT31;58935;54.498;18.544;2023-06-22T09:50:56;23.68;51.64
71206;SHT31;58935;54.498;18.544;2023-06-22T09:53:24;23.68;51.74
71206;SHT31;58935;54.498;18.544;2023-06-22T09:55:50;23.74;51.50
71206;SHT31;58935;54.498;18.544;2023-06-22T09:58:16;23.84;51.88
71206;SHT31;58935;54.498;18.544;2023-06-22T10:00:42;24.03;52.27
71206;SHT31;58935;54.498;18.544;2023-06-22T10:03:07;24.19;50.97
71206;SHT31;58935;54.498;18.544;2023-06-22T10:05:33;24.26;50.22
71206;SHT31;58935;54.498;18.544;2023-06-22T10:07:59;24.31;50.02
71206;SHT31;58935;54.498;18.544;2023-06-22T10:10:24;24.33;50.52
71206;SHT31;58935;54.498;18.544;2023-06-22T10:15:22;24.48;50.13
71206;SHT31;58935;54.498;18.544;2023-06-22T10:17:48;24.44;49.83
71206;SHT31;58935;54.498;18.544;2023-06-22T10:20:14;24.34;50.35
71206;SHT31;58935;54.498;18.544;2023-06-22T10:22:40;24.34;50.68
71206;SHT31;58935;54.498;18.544;2023-06-22T10:25:08;24.35;50.75
71206;SHT31;58935;54.498;18.544;2023-06-22T10:27:36;24.42;50.56
71206;SHT31;58935;54.498;18.544;2023-06-22T10:30:05;24.53;49.97
71206;SHT31;58935;54.498;18.544;2023-06-22T10:32:33;24.66;49.52
71206;SHT31;58935;54.498;18.544;2023-06-22T10:34:59;24.76;49.27
71206;SHT31;58935;54.498;18.544;2023-06-22T10:37:25;24.87;49.69
71206;SHT31;58935;54.498;18.544;2023-06-22T10:39:51;24.98;49.27
71206;SHT31;58935;54.498;18.544;2023-06-22T10:42:16;25.06;47.83
71206;SHT31;58935;54.498;18.544;2023-06-22T10:44:42;25.14;47.04
71206;SHT31;58935;54.498;18.544;2023-06-22T10:47:11;25.22;47.36
71206;SHT31;58935;54.498;18.544;2023-06-22T10:49:38;25.23;46.84
71206;SHT31;58935;54.498;18.544;2023-06-22T10:52:06;25.12;46.95
71206;SHT31;58935;54.498;18.544;2023-06-22T10:54:33;25.14;47.06
71206;SHT31;58935;54.498;18.544;2023-06-22T10:57:01;25.17;47.27
71206;SHT31;58935;54.498;18.544;2023-06-22T10:59:27;25.19;47.25
71206;SHT31;58935;54.498;18.544;2023-06-22T11:01:56;25.23;47.60
71206;SHT31;58935;54.498;18.544;2023-06-22T11:04:23;25.33;46.45
71206;SHT31;58935;54.498;18.544;2023-06-22T11:06:49;25.39;46.25
71206;SHT31;58935;54.498;18.544;2023-06-22T11:09:14;25.50;45.73
71206;SHT31;58935;54.498;18.544;2023-06-22T11:11:45;25.56;45.13
71206;SHT31;58935;54.498;18.544;2023-06-22T11:14:12;25.62;45.32
71206;SHT31;58935;54.498;18.544;2023-06-22T11:16:37;25.74;45.24
71206;SHT31;58935;54.498;18.544;2023-06-22T11:19:04;25.84;46.06
71206;SHT31;58935;54.498;18.544;2023-06-22T11:21:31;26.02;45.21
71206;SHT31;58935;54.498;18.544;2023-06-22T11:23:57;26.14;44.43
71206;SHT31;58935;54.498;18.544;2023-06-22T11:26:23;26.27;43.74
71206;SHT31;58935;54.498;18.544;2023-06-22T11:28:52;26.35;43.61
71206;SHT31;58935;54.498;18.544;2023-06-22T11:31:18;26.43;43.17
71206;SHT31;58935;54.498;18.544;2023-06-22T11:37:06;26.48;40.48
71206;SHT31;58935;54.498;18.544;2023-06-22T11:39:33;26.51;42.14
71206;SHT31;58935;54.498;18.544;2023-06-22T11:41:58;26.59;42.79
71206;SHT31;58935;54.498;18.544;2023-06-22T11:44:25;26.69;42.83
71206;SHT31;58935;54.498;18.544;2023-06-22T11:46:51;26.78;42.97
71206;SHT31;58935;54.498;18.544;2023-06-22T11:49:16;26.84;42.74
71206;SHT31;58935;54.498;18.544;2023-06-22T11:51:42;26.90;42.18
71206;SHT31;58935;54.498;18.544;2023-06-22T11:54:08;26.95;41.21
71206;SHT31;58935;54.498;18.544;2023-06-22T11:56:35;26.99;44.31
71206;SHT31;58935;54.498;18.544;2023-06-22T11:59:01;26.84;47.13
71206;SHT31;58935;54.498;18.544;2023-06-22T12:01:27;26.76;42.23
71206;SHT31;58935;54.498;18.544;2023-06-22T12:03:52;26.86;40.06
71206;SHT31;58935;54.498;18.544;2023-06-22T12:06:18;26.94;39.95
71206;SHT31;58935;54.498;18.544;2023-06-22T12:08:43;27.09;40.73
71206;SHT31;58935;54.498;18.544;2023-06-22T12:11:08;27.18;40.08
71206;SHT31;58935;54.498;18.544;2023-06-22T12:13:36;27.25;40.39
71206;SHT31;58935;54.498;18.544;2023-06-22T12:16:02;27.32;40.15
71206;SHT31;58935;54.498;18.544;2023-06-22T12:18:27;27.34;39.39
71206;SHT31;58935;54.498;18.544;2023-06-22T12:20:53;27.41;40.23
71206;SHT31;58935;54.498;18.544;2023-06-22T12:23:18;27.50;40.46
71206;SHT31;58935;54.498;18.544;2023-06-22T12:25:45;27.57;40.46
71206;SHT31;58935;54.498;18.544;2023-06-22T12:28:10;27.59;40.02
71206;SHT31;58935;54.498;18.544;2023-06-22T12:30:36;27.67;39.69
71206;SHT31;58935;54.498;18.544;2023-06-22T12:33:01;27.77;37.51
71206;SHT31;58935;54.498;18.544;2023-06-22T12:35:27;27.80;38.24
71206;SHT31;58935;54.498;18.544;2023-06-22T12:37:52;27.87;38.63
71206;SHT31;58935;54.498;18.544;2023-06-22T12:40:18;27.90;38.11
71206;SHT31;58935;54.498;18.544;2023-06-22T12:42:44;27.86;38.84
71206;SHT31;58935;54.498;18.544;2023-06-22T12:45:10;27.84;39.32
71206;SHT31;58935;54.498;18.544;2023-06-22T12:47:35;27.86;39.12
71206;SHT31;58935;54.498;18.544;2023-06-22T12:50:01;27.95;38.81
71206;SHT31;58935;54.498;18.544;2023-06-22T12:52:27;28.01;38.36
71206;SHT31;58935;54.498;18.544;2023-06-22T12:54:56;28.09;37.82
71206;SHT31;58935;54.498;18.544;2023-06-22T12:57:22;28.20;40.10
71206;SHT31;58935;54.498;18.544;2023-06-22T12:59:48;28.38;44.61
71206;SHT31;58935;54.498;18.544;2023-06-22T13:02:14;28.38;46.09
71206;SHT31;58935;54.498;18.544;2023-06-22T13:04:39;28.40;45.98
71206;SHT31;58935;54.498;18.544;2023-06-22T13:07:05;28.42;45.78
71206;SHT31;58935;54.498;18.544;2023-06-22T13:09:31;28.47;46.15
71206;SHT31;58935;54.498;18.544;2023-06-22T13:11:56;28.51;46.61
71206;SHT31;58935;54.498;18.544;2023-06-22T13:14:21;28.47;47.01
71206;SHT31;58935;54.498;18.544;2023-06-22T13:16:47;28.41;47.42
71206;SHT31;58935;54.498;18.544;2023-06-22T13:19:12;28.40;48.04
71206;SHT31;58935;54.498;18.544;2023-06-22T13:21:37;28.37;48.56
71206;SHT31;58935;54.498;18.544;2023-06-22T13:24:03;28.31;47.84
71206;SHT31;58935;54.498;18.544;2023-06-22T13:26:31;28.41;47.43
71206;SHT31;58935;54.498;18.544;2023-06-22T13:28:56;28.52;47.46
71206;SHT31;58935;54.498;18.544;2023-06-22T13:31:22;28.49;47.62
71206;SHT31;58935;54.498;18.544;2023-06-22T13:33:47;28.53;47.93
71206;SHT31;58935;54.498;18.544;2023-06-22T13:36:14;28.53;47.77
71206;SHT31;58935;54.498;18.544;2023-06-22T13:38:39;28.53;47.54
71206;SHT31;58935;54.498;18.544;2023-06-22T13:41:05;28.49;47.88
71206;SHT31;58935;54.498;18.544;2023-06-22T13:43:33;28.51;48.57
71206;SHT31;58935;54.498;18.544;2023-06-22T13:45:59;28.56;48.07
71206;SHT31;58935;54.498;18.544;2023-06-22T13:48:24;28.58;47.38
71206;SHT31;58935;54.498;18.544;2023-06-22T13:50:51;28.67;46.86
71206;SHT31;58935;54.498;18.544;2023-06-22T13:53:17;28.70;46.87
71206;SHT31;58935;54.498;18.544;2023-06-22T13:55:44;28.68;46.92
71206;SHT31;58935;54.498;18.544;2023-06-22T13:58:09;28.65;46.53
71206;SHT31;58935;54.498;18.544;2023-06-22T14:00:35;28.57;47.27
71206;SHT31;58935;54.498;18.544;2023-06-22T14:03:00;28.50;47.29
71206;SHT31;58935;54.498;18.544;2023-06-22T14:05:25;28.42;47.17
71206;SHT31;58935;54.498;18.544;2023-06-22T14:07:51;28.35;46.01
71206;SHT31;58935;54.498;18.544;2023-06-22T14:10:17;28.33;45.49
71206;SHT31;58935;54.498;18.544;2023-06-22T14:12:42;28.36;44.10
71206;SHT31;58935;54.498;18.544;2023-06-22T14:15:08;28.41;44.04
71206;SHT31;58935;54.498;18.544;2023-06-22T14:17:34;28.43;45.00
71206;SHT31;58935;54.498;18.544;2023-06-22T14:19:59;28.42;45.76
71206;SHT31;58935;54.498;18.544;2023-06-22T14:22:24;28.48;43.70
71206;SHT31;58935;54.498;18.544;2023-06-22T14:24:50;28.61;44.75
71206;SHT31;58935;54.498;18.544;2023-06-22T14:27:16;28.70;45.62
71206;SHT31;58935;54.498;18.544;2023-06-22T14:29:41;28.62;45.14
71206;SHT31;58935;54.498;18.544;2023-06-22T14:32:07;28.64;44.85
71206;SHT31;58935;54.498;18.544;2023-06-22T14:34:34;28.69;46.09
71206;SHT31;58935;54.498;18.544;2023-06-22T14:37:04;28.70;43.37
71206;SHT31;58935;54.498;18.544;2023-06-22T14:39:32;28.74;45.05
71206;SHT31;58935;54.498;18.544;2023-06-22T14:41:58;28.79;46.86
71206;SHT31;58935;54.498;18.544;2023-06-22T14:44:28;28.81;47.49
71206;SHT31;58935;54.498;18.544;2023-06-22T14:46:55;28.79;47.25
71206;SHT31;58935;54.498;18.544;2023-06-22T14:49:21;28.72;47.62
71206;SHT31;58935;54.498;18.544;2023-06-22T14:51:47;28.66;48.14
71206;SHT31;58935;54.498;18.544;2023-06-22T14:54:12;28.56;48.01
71206;SHT31;58935;54.498;18.544;2023-06-22T14:56:38;28.50;47.99
71206;SHT31;58935;54.498;18.544;2023-06-22T14:59:04;28.49;48.43
71206;SHT31;58935;54.498;18.544;2023-06-22T15:01:29;28.47;48.67
71206;SHT31;58935;54.498;18.544;2023-06-22T15:03:55;28.33;49.08
71206;SHT31;58935;54.498;18.544;2023-06-22T15:06:21;28.24;49.32
71206;SHT31;58935;54.498;18.544;2023-06-22T15:08:47;28.31;49.05
71206;SHT31;58935;54.498;18.544;2023-06-22T15:11:12;28.35;48.90
71206;SHT31;58935;54.498;18.544;2023-06-22T15:13:39;28.32;49.20
71206;SHT31;58935;54.498;18.544;2023-06-22T15:16:05;28.25;49.54
71206;SHT31;58935;54.498;18.544;2023-06-22T15:18:31;28.16;49.74
71206;SHT31;58935;54.498;18.544;2023-06-22T15:20:58;28.11;50.10
71206;SHT31;58935;54.498;18.544;2023-06-22T15:23:26;28.18;49.93
71206;SHT31;58935;54.498;18.544;2023-06-22T15:25:54;28.19;49.42
71206;SHT31;58935;54.498;18.544;2023-06-22T15:28:21;28.11;49.97
71206;SHT31;58935;54.498;18.544;2023-06-22T15:30:47;28.24;49.89
71206;SHT31;58935;54.498;18.544;2023-06-22T15:33:13;28.42;48.93
71206;SHT31;58935;54.498;18.544;2023-06-22T15:35:39;28.52;48.75
71206;SHT31;58935;54.498;18.544;2023-06-22T15:38:05;28.56;48.88
71206;SHT31;58935;54.498;18.544;2023-06-22T15:40:30;28.45;48.99
71206;SHT31;58935;54.498;18.544;2023-06-22T15:42:56;28.29;48.96
71206;SHT31;58935;54.498;18.544;2023-06-22T15:45:21;28.33;49.19
71206;SHT31;58935;54.498;18.544;2023-06-22T15:47:47;28.35;49.19
71206;SHT31;58935;54.498;18.544;2023-06-22T15:50:12;28.40;49.25
71206;SHT31;58935;54.498;18.544;2023-06-22T15:52:39;28.37;49.36
71206;SHT31;58935;54.498;18.544;2023-06-22T15:55:06;28.42;49.71
71206;SHT31;58935;54.498;18.544;2023-06-22T15:57:34;28.46;49.75
71206;SHT31;58935;54.498;18.544;2023-06-22T16:00:00;28.47;49.38
71206;SHT31;58935;54.498;18.544;2023-06-22T16:02:26;28.47;49.79
71206;SHT31;58935;54.498;18.544;2023-06-22T16:04:53;28.57;49.64
71206;SHT31;58935;54.498;18.544;2023-06-22T16:07:19;28.49;49.67
71206;SHT31;58935;54.498;18.544;2023-06-22T16:09:47;28.33;49.76
71206;SHT31;58935;54.498;18.544;2023-06-22T16:12:13;28.30;49.93
71206;SHT31;58935;54.498;18.544;2023-06-22T16:14:38;28.25;50.13
71206;SHT31;58935;54.498;18.544;2023-06-22T16:17:05;28.13;50.27
71206;SHT31;58935;54.498;18.544;2023-06-22T16:19:31;28.02;50.60
71206;SHT31;58935;54.498;18.544;2023-06-22T16:21:59;27.96;50.21
71206;SHT31;58935;54.498;18.544;2023-06-22T16:24:27;27.82;50.71
71206;SHT31;58935;54.498;18.544;2023-06-22T16:26:53;27.75;50.99
71206;SHT31;58935;54.498;18.544;2023-06-22T16:29:19;27.73;51.23
71206;SHT31;58935;54.498;18.544;2023-06-22T16:31:45;27.66;51.39
71206;SHT31;58935;54.498;18.544;2023-06-22T16:34:10;27.64;51.50
71206;SHT31;58935;54.498;18.544;2023-06-22T16:36:38;27.65;51.67
71206;SHT31;58935;54.498;18.544;2023-06-22T16:39:04;27.75;51.29